sensor_id;sensor_type;location;lat;lon;timestamp;pressure;altitude;pressure_sealevel;temperature;humidity
77452;BME280;66537;52.370;4.832;2023-05-27T00:01:41;103122.44;;;10.70;71.81
77452;BME280;66537;52.370;4.832;2023-05-27T00:04:07;103109.47;;;10.66;71.54
77452;BME280;66537;52.370;4.832;2023-05-27T00:06:32;103111.16;;;10.61;71.74
77452;BME280;66537;52.370;4.832;2023-05-27T00:08:57;103111.97;;;10.55;71.71
77452;BME280;66537;52.370;4.832;2023-05-27T00:11:23;103115.50;;;10.62;71.83
77452;BME280;66537;52.370;4.832;2023-05-27T00:13:49;103105.97;;;10.59;71.76
77452;BME280;66537;52.370;4.832;2023-05-27T00:16:14;103116.31;;;10.59;71.75
77452;BME280;66537;52.370;4.832;2023-05-27T00:18:41;103112.91;;;10.60;71.79
77452;BME280;66537;52.370;4.832;2023-05-27T00:21:07;103109.44;;;10.61;71.86
77452;BME280;66537;52.370;4.832;2023-05-27T00:23:32;103107.69;;;10.54;72.11
77452;BME280;66537;52.370;4.832;2023-05-27T00:25:57;103110.25;;;10.54;72.80
77452;BME280;66537;52.370;4.832;2023-05-27T00:28:23;103106.81;;;10.54;72.58
77452;BME280;66537;52.370;4.832;2023-05-27T00:30:48;103115.44;;;10.59;72.73
77452;BME280;66537;52.370;4.832;2023-05-27T00:33:14;103112.84;;;10.56;72.99
77452;BME280;66537;52.370;4.832;2023-05-27T00:35:39;103106.84;;;10.63;72.66
77452;BME280;66537;52.370;4.832;2023-05-27T00:38:05;103116.38;;;10.68;72.48
77452;BME280;66537;52.370;4.832;2023-05-27T00:40:30;103110.31;;;10.62;73.25
77452;BME280;66537;52.370;4.832;2023-05-27T00:42:59;103111.03;;;10.46;73.76
77452;BME280;66537;52.370;4.832;2023-05-27T00:45:24;103113.63;;;10.43;73.79
77452;BME280;66537;52.370;4.832;2023-05-27T00:47:51;103116.31;;;10.56;73.24
77452;BME280;66537;52.370;4.832;2023-05-27T00:50:17;103114.50;;;10.48;73.03
77452;BME280;66537;52.370;4.832;2023-05-27T00:52:44;103117.97;;;10.47;73.33
77452;BME280;66537;52.370;4.832;2023-05-27T00:55:09;103115.34;;;10.45;73.68
77452;BME280;66537;52.370;4.832;2023-05-27T00:57:34;103110.06;;;10.30;73.56
77452;BME280;66537;52.370;4.832;2023-05-27T01:00:00;103112.75;;;10.39;73.59
77452;BME280;66537;52.370;4.832;2023-05-27T01:02:25;103105.81;;;10.38;73.62
77452;BME280;66537;52.370;4.832;2023-05-27T01:04:51;103098.09;;;10.47;73.08
77452;BME280;66537;52.370;4.832;2023-05-27T01:07:29;103111.91;;;10.46;72.58
77452;BME280;66537;52.370;4.832;2023-05-27T01:12:49;103097.13;;;10.30;73.63
77452;BME280;66537;52.370;4.832;2023-05-27T01:15:15;103100.53;;;10.25;73.68
77452;BME280;66537;52.370;4.832;2023-05-27T01:17:42;103097.94;;;10.26;73.98
77452;BME280;66537;52.370;4.832;2023-05-27T01:20:10;103099.63;;;10.23;74.24
77452;BME280;66537;52.370;4.832;2023-05-27T01:22:36;103100.56;;;10.31;74.14
77452;BME280;66537;52.370;4.832;2023-05-27T01:25:02;103100.47;;;10.17;74.34
77452;BME280;66537;52.370;4.832;2023-05-27T01:27:28;103100.50;;;10.22;74.34
77452;BME280;66537;52.370;4.832;2023-05-27T01:29:54;103096.16;;;10.18;74.27
77452;BME280;66537;52.370;4.832;2023-05-27T01:32:28;103093.50;;;10.12;74.64
77452;BME280;66537;52.370;4.832;2023-05-27T01:35:15;103093.53;;;10.15;74.74
77452;BME280;66537;52.370;4.832;2023-05-27T01:37:44;103092.53;;;10.02;74.45
77452;BME280;66537;52.370;4.832;2023-05-27T01:40:11;103083.91;;;10.01;75.13
77452;BME280;66537;52.370;4.832;2023-05-27T01:42:39;103084.84;;;10.08;74.61
77452;BME280;66537;52.370;4.832;2023-05-27T01:45:06;103081.38;;;10.09;74.94
77452;BME280;66537;52.370;4.832;2023-05-27T01:47:32;103082.22;;;10.07;74.86
77452;BME280;66537;52.370;4.832;2023-05-27T01:49:58;103080.59;;;10.15;74.81
77452;BME280;66537;52.370;4.832;2023-05-27T01:52:23;103086.44;;;9.97;75.25
77452;BME280;66537;52.370;4.832;2023-05-27T01:54:49;103083.94;;;10.06;74.93
77452;BME280;66537;52.370;4.832;2023-05-27T01:57:14;103077.84;;;10.01;75.08
77452;BME280;66537;52.370;4.832;2023-05-27T01:59:40;103086.41;;;9.91;75.43
77452;BME280;66537;52.370;4.832;2023-05-27T02:02:05;103079.59;;;10.00;75.50
77452;BME280;66537;52.370;4.832;2023-05-27T02:04:31;103076.06;;;9.92;75.36
77452;BME280;66537;52.370;4.832;2023-05-27T02:06:56;103080.41;;;9.96;75.17
77452;BME280;66537;52.370;4.832;2023-05-27T02:09:22;103076.88;;;9.87;75.61
77452;BME280;66537;52.370;4.832;2023-05-27T02:11:47;103080.31;;;9.86;76.03
77452;BME280;66537;52.370;4.832;2023-05-27T02:14:13;103089.03;;;9.97;76.17
77452;BME280;66537;52.370;4.832;2023-05-27T02:16:38;103085.59;;;9.98;76.09
77452;BME280;66537;52.370;4.832;2023-05-27T02:19:04;103080.34;;;9.90;76.08
77452;BME280;66537;52.370;4.832;2023-05-27T02:21:30;103076.06;;;9.91;75.76
77452;BME280;66537;52.370;4.832;2023-05-27T02:23:55;103085.47;;;9.83;76.15
77452;BME280;66537;52.370;4.832;2023-05-27T02:26:21;103079.47;;;9.87;75.94
77452;BME280;66537;52.370;4.832;2023-05-27T02:28:47;103075.13;;;9.86;76.45
77452;BME280;66537;52.370;4.832;2023-05-27T02:31:12;103074.25;;;9.84;76.51
77452;BME280;66537;52.370;4.832;2023-05-27T02:33:37;103073.41;;;9.85;76.08
77452;BME280;66537;52.370;4.832;2023-05-27T02:36:03;103078.59;;;9.86;76.08
77452;BME280;66537;52.370;4.832;2023-05-27T02:38:28;103070.84;;;9.89;75.71
77452;BME280;66537;52.370;4.832;2023-05-27T02:40:54;103073.44;;;9.89;75.65
77452;BME280;66537;52.370;4.832;2023-05-27T02:43:19;103082.88;;;9.83;76.25
77452;BME280;66537;52.370;4.832;2023-05-27T02:45:44;103079.41;;;9.81;76.54
77452;BME280;66537;52.370;4.832;2023-05-27T02:48:10;103076.84;;;9.84;76.31
77452;BME280;66537;52.370;4.832;2023-05-27T02:50:35;103072.47;;;9.80;76.44
77452;BME280;66537;52.370;4.832;2023-05-27T02:53:00;103082.72;;;9.69;76.83
77452;BME280;66537;52.370;4.832;2023-05-27T02:55:26;103081.13;;;9.83;77.18
77452;BME280;66537;52.370;4.832;2023-05-27T02:57:51;103072.34;;;9.65;77.59
77452;BME280;66537;52.370;4.832;2023-05-27T03:00:16;103079.28;;;9.69;77.95
77452;BME280;66537;52.370;4.832;2023-05-27T03:02:43;103086.13;;;9.67;77.45
77452;BME280;66537;52.370;4.832;2023-05-27T03:05:08;103079.25;;;9.67;77.51
77452;BME280;66537;52.370;4.832;2023-05-27T03:07:33;103086.06;;;9.62;77.63
77452;BME280;66537;52.370;4.832;2023-05-27T03:09:59;103075.81;;;9.70;77.50
77452;BME280;66537;52.370;4.832;2023-05-27T03:12:24;103080.16;;;9.72;77.20
77452;BME280;66537;52.370;4.832;2023-05-27T03:14:50;103074.84;;;9.60;77.45
77452;BME280;66537;52.370;4.832;2023-05-27T03:17:16;103074.16;;;9.75;77.15
77452;BME280;66537;52.370;4.832;2023-05-27T03:19:42;103081.84;;;9.69;77.07
77452;BME280;66537;52.370;4.832;2023-05-27T03:22:08;103071.47;;;9.66;77.25
77452;BME280;66537;52.370;4.832;2023-05-27T03:24:34;103071.47;;;9.66;77.44
77452;BME280;66537;52.370;4.832;2023-05-27T03:27:00;103074.97;;;9.71;77.36
77452;BME280;66537;52.370;4.832;2023-05-27T03:29:26;103069.75;;;9.65;77.44
77452;BME280;66537;52.370;4.832;2023-05-27T03:31:52;103075.94;;;9.79;77.40
77452;BME280;66537;52.370;4.832;2023-05-27T03:34:17;103082.81;;;9.78;77.50
77452;BME280;66537;52.370;4.832;2023-05-27T03:36:43;103077.72;;;9.86;77.24
77452;BME280;66537;52.370;4.832;2023-05-27T03:39:14;103071.81;;;9.99;76.55
77452;BME280;66537;52.370;4.832;2023-05-27T03:41:39;103074.28;;;9.87;77.23
77452;BME280;66537;52.370;4.832;2023-05-27T03:44:05;103070.91;;;9.92;77.40
77452;BME280;66537;52.370;4.832;2023-05-27T03:46:30;103069.13;;;9.88;77.26
77452;BME280;66537;52.370;4.832;2023-05-27T03:48:55;103074.25;;;9.85;77.41
77452;BME280;66537;52.370;4.832;2023-05-27T03:51:21;103082.19;;;10.02;77.05
77452;BME280;66537;52.370;4.832;2023-05-27T03:53:47;103074.44;;;10.03;77.04
77452;BME280;66537;52.370;4.832;2023-05-27T03:56:12;103068.41;;;10.03;77.13
77452;BME280;66537;52.370;4.832;2023-05-27T03:58:37;103070.16;;;10.07;77.07
77452;BME280;66537;52.370;4.832;2023-05-27T04:01:03;103062.31;;;9.98;77.18
77452;BME280;66537;52.370;4.832;2023-05-27T04:03:28;103053.69;;;9.96;77.33
77452;BME280;66537;52.370;4.832;2023-05-27T04:05:54;103054.59;;;10.01;77.35
77452;BME280;66537;52.370;4.832;2023-05-27T04:08:21;103046.88;;;10.04;77.15
77452;BME280;66537;52.370;4.832;2023-05-27T04:10:47;103041.66;;;9.99;76.96
77452;BME280;66537;52.370;4.832;2023-05-27T04:13:13;103047.72;;;10.04;77.38
77452;BME280;66537;52.370;4.832;2023-05-27T04:15:38;103052.00;;;9.99;76.99
77452;BME280;66537;52.370;4.832;2023-05-27T04:18:04;103045.94;;;9.96;77.64
77452;BME280;66537;52.370;4.832;2023-05-27T04:20:39;103051.97;;;9.96;77.83
77452;BME280;66537;52.370;4.832;2023-05-27T04:23:09;103058.09;;;10.08;77.69
77452;BME280;66537;52.370;4.832;2023-05-27T04:25:35;103056.22;;;9.93;77.73
77452;BME280;66537;52.370;4.832;2023-05-27T04:28:01;103055.38;;;9.92;77.49
77452;BME280;66537;52.370;4.832;2023-05-27T04:30:32;103052.88;;;10.01;77.53
77452;BME280;66537;52.370;4.832;2023-05-27T04:32:58;103046.88;;;10.06;77.76
77452;BME280;66537;52.370;4.832;2023-05-27T04:35:24;103054.72;;;10.12;77.43
77452;BME280;66537;52.370;4.832;2023-05-27T04:37:50;103057.31;;;10.10;77.15
77452;BME280;66537;52.370;4.832;2023-05-27T04:40:15;103055.63;;;10.17;77.26
77452;BME280;66537;52.370;4.832;2023-05-27T04:42:41;103049.59;;;10.19;77.08
77452;BME280;66537;52.370;4.832;2023-05-27T04:45:09;103053.13;;;10.29;76.73
77452;BME280;66537;52.370;4.832;2023-05-27T04:47:37;103051.47;;;10.38;76.74
77452;BME280;66537;52.370;4.832;2023-05-27T04:50:03;103052.34;;;10.39;77.24
77452;BME280;66537;52.370;4.832;2023-05-27T04:52:29;103055.97;;;10.60;76.82
77452;BME280;66537;52.370;4.832;2023-05-27T04:54:55;103051.69;;;10.71;75.86
77452;BME280;66537;52.370;4.832;2023-05-27T04:57:21;103047.41;;;10.73;75.64
77452;BME280;66537;52.370;4.832;2023-05-27T04:59:47;103058.56;;;10.65;75.88
77452;BME280;66537;52.370;4.832;2023-05-27T05:02:42;103050.81;;;10.71;75.86
77452;BME280;66537;52.370;4.832;2023-05-27T05:05:09;103060.16;;;10.48;76.67
77452;BME280;66537;52.370;4.832;2023-05-27T05:07:35;103056.75;;;10.49;76.33
77452;BME280;66537;52.370;4.832;2023-05-27T05:10:03;103055.09;;;10.60;75.95
77452;BME280;66537;52.370;4.832;2023-05-27T05:12:29;103059.38;;;10.56;76.06
77452;BME280;66537;52.370;4.832;2023-05-27T05:14:55;103061.13;;;10.60;76.26
77452;BME280;66537;52.370;4.832;2023-05-27T05:17:20;103056.03;;;10.75;75.50
77452;BME280;66537;52.370;4.832;2023-05-27T05:19:49;103055.91;;;10.59;75.14
77452;BME280;66537;52.370;4.832;2023-05-27T05:22:14;103052.53;;;10.67;75.41
77452;BME280;66537;52.370;4.832;2023-05-27T05:24:43;103044.06;;;11.02;74.44
77452;BME280;66537;52.370;4.832;2023-05-27T05:27:08;103037.31;;;11.37;72.84
77452;BME280;66537;52.370;4.832;2023-05-27T05:29:34;103026.09;;;11.38;72.24
77452;BME280;66537;52.370;4.832;2023-05-27T05:31:59;103033.09;;;11.79;70.45
77452;BME280;66537;52.370;4.832;2023-05-27T05:34:25;103029.66;;;12.27;69.20
77452;BME280;66537;52.370;4.832;2023-05-27T05:36:50;103029.66;;;12.23;68.74
77452;BME280;66537;52.370;4.832;2023-05-27T05:39:15;103017.56;;;11.92;68.86
77452;BME280;66537;52.370;4.832;2023-05-27T05:41:42;103021.00;;;11.68;69.66
77452;BME280;66537;52.370;4.832;2023-05-27T05:44:07;103019.19;;;11.50;70.16
77452;BME280;66537;52.370;4.832;2023-05-27T05:46:32;103014.84;;;11.36;69.76
77452;BME280;66537;52.370;4.832;2023-05-27T05:48:57;103012.31;;;11.49;69.72
77452;BME280;66537;52.370;4.832;2023-05-27T05:51:23;103014.94;;;11.66;68.96
77452;BME280;66537;52.370;4.832;2023-05-27T05:53:48;103010.56;;;11.54;69.10
77452;BME280;66537;52.370;4.832;2023-05-27T05:56:13;103021.88;;;12.17;68.03
77452;BME280;66537;52.370;4.832;2023-05-27T05:58:39;103014.78;;;12.93;65.27
77452;BME280;66537;52.370;4.832;2023-05-27T06:01:04;103021.25;;;13.78;62.45
77452;BME280;66537;52.370;4.832;2023-05-27T06:03:30;103006.81;;;14.47;60.19
77452;BME280;66537;52.370;4.832;2023-05-27T06:05:55;102997.09;;;15.31;59.04
77452;BME280;66537;52.370;4.832;2023-05-27T06:08:20;103007.56;;;14.57;59.28
77452;BME280;66537;52.370;4.832;2023-05-27T06:10:46;102998.88;;;14.56;59.67
77452;BME280;66537;52.370;4.832;2023-05-27T06:13:11;102999.38;;;14.90;59.71
77452;BME280;66537;52.370;4.832;2023-05-27T06:15:37;103003.63;;;14.13;60.95
77452;BME280;66537;52.370;4.832;2023-05-27T06:18:04;103008.31;;;13.72;61.85
77452;BME280;66537;52.370;4.832;2023-05-27T06:20:29;103008.44;;;13.52;62.65
77452;BME280;66537;52.370;4.832;2023-05-27T06:22:54;103005.88;;;13.46;62.75
77452;BME280;66537;52.370;4.832;2023-05-27T06:25:20;103007.38;;;14.75;60.51
77452;BME280;66537;52.370;4.832;2023-05-27T06:27:45;102998.59;;;15.47;58.04
77452;BME280;66537;52.370;4.832;2023-05-27T06:30:11;102993.66;;;15.84;57.38
77452;BME280;66537;52.370;4.832;2023-05-27T06:32:36;102989.91;;;16.01;56.56
77452;BME280;66537;52.370;4.832;2023-05-27T06:35:02;102995.28;;;16.41;55.69
77452;BME280;66537;52.370;4.832;2023-05-27T06:37:27;102998.75;;;17.27;54.17
77452;BME280;66537;52.370;4.832;2023-05-27T06:39:53;102996.69;;;17.41;53.74
77452;BME280;66537;52.370;4.832;2023-05-27T06:42:18;102993.41;;;16.92;54.13
77452;BME280;66537;52.370;4.832;2023-05-27T06:44:44;102977.78;;;18.02;52.04
77452;BME280;66537;52.370;4.832;2023-05-27T06:47:11;102990.06;;;17.65;52.17
77452;BME280;66537;52.370;4.832;2023-05-27T06:49:36;102995.41;;;17.21;53.25
77452;BME280;66537;52.370;4.832;2023-05-27T06:52:03;102979.16;;;17.81;51.69
77452;BME280;66537;52.370;4.832;2023-05-27T06:54:28;102978.41;;;18.74;50.85
77452;BME280;66537;52.370;4.832;2023-05-27T06:56:53;102981.75;;;19.09;49.99
77452;BME280;66537;52.370;4.832;2023-05-27T06:59:19;102977.47;;;19.35;48.83
77452;BME280;66537;52.370;4.832;2023-05-27T07:01:44;102977.00;;;18.92;49.06
77452;BME280;66537;52.370;4.832;2023-05-27T07:04:09;102981.63;;;18.84;49.49
77452;BME280;66537;52.370;4.832;2023-05-27T07:06:35;102986.56;;;19.24;49.32
77452;BME280;66537;52.370;4.832;2023-05-27T07:09:02;102984.31;;;18.52;49.42
77452;BME280;66537;52.370;4.832;2023-05-27T07:11:28;102979.34;;;19.01;49.22
77452;BME280;66537;52.370;4.832;2023-05-27T07:13:53;102979.25;;;19.61;48.54
77452;BME280;66537;52.370;4.832;2023-05-27T07:16:18;102982.78;;;19.32;47.89
77452;BME280;66537;52.370;4.832;2023-05-27T07:18:44;102977.78;;;18.96;49.37
77452;BME280;66537;52.370;4.832;2023-05-27T07:21:09;102964.50;;;19.57;47.99
77452;BME280;66537;52.370;4.832;2023-05-27T07:23:35;102968.59;;;19.65;47.85
77452;BME280;66537;52.370;4.832;2023-05-27T07:26:00;102972.34;;;19.85;47.86
77452;BME280;66537;52.370;4.832;2023-05-27T07:28:26;102966.31;;;20.07;47.85
77452;BME280;66537;52.370;4.832;2023-05-27T07:30:51;102963.50;;;20.38;47.08
77452;BME280;66537;52.370;4.832;2023-05-27T07:33:17;102962.81;;;20.07;46.66
77452;BME280;66537;52.370;4.832;2023-05-27T07:35:42;102962.19;;;19.74;47.65
77452;BME280;66537;52.370;4.832;2023-05-27T07:38:08;102965.69;;;20.25;47.51
77452;BME280;66537;52.370;4.832;2023-05-27T07:40:33;102954.09;;;19.54;48.90
77452;BME280;66537;52.370;4.832;2023-05-27T07:42:59;102959.19;;;20.11;47.57
77452;BME280;66537;52.370;4.832;2023-05-27T07:45:24;102952.72;;;19.42;47.51
77452;BME280;66537;52.370;4.832;2023-05-27T07:47:49;102951.88;;;19.13;48.99
77452;BME280;66537;52.370;4.832;2023-05-27T07:50:15;102945.28;;;20.07;47.10
77452;BME280;66537;52.370;4.832;2023-05-27T07:52:41;102944.66;;;20.25;47.09
77452;BME280;66537;52.370;4.832;2023-05-27T07:55:07;102945.75;;;20.20;46.93
77452;BME280;66537;52.370;4.832;2023-05-27T07:57:32;102941.19;;;20.48;46.56
77452;BME280;66537;52.370;4.832;2023-05-27T07:59:58;102946.66;;;20.66;45.72
77452;BME280;66537;52.370;4.832;2023-05-27T08:02:23;102941.22;;;20.71;46.08
77452;BME280;66537;52.370;4.832;2023-05-27T08:04:50;102943.19;;;20.88;46.48
77452;BME280;66537;52.370;4.832;2023-05-27T08:07:16;102935.00;;;21.82;44.45
77452;BME280;66537;52.370;4.832;2023-05-27T08:09:41;102931.09;;;21.28;44.51
77452;BME280;66537;52.370;4.832;2023-05-27T08:12:06;102928.06;;;22.01;44.13
77452;BME280;66537;52.370;4.832;2023-05-27T08:14:32;102929.56;;;21.86;44.61
77452;BME280;66537;52.370;4.832;2023-05-27T08:16:58;102923.09;;;22.13;44.23
77452;BME280;66537;52.370;4.832;2023-05-27T08:19:23;102908.31;;;22.09;44.02
77452;BME280;66537;52.370;4.832;2023-05-27T08:21:48;102907.59;;;21.86;44.01
77452;BME280;66537;52.370;4.832;2023-05-27T08:24:14;102906.56;;;22.10;43.46
77452;BME280;66537;52.370;4.832;2023-05-27T08:26:39;102909.84;;;21.33;44.46
77452;BME280;66537;52.370;4.832;2023-05-27T08:29:05;102905.91;;;21.00;45.16
77452;BME280;66537;52.370;4.832;2023-05-27T08:31:30;102900.19;;;20.65;45.67
77452;BME280;66537;52.370;4.832;2023-05-27T08:33:56;102894.84;;;21.35;44.50
77452;BME280;66537;52.370;4.832;2023-05-27T08:36:22;102903.03;;;21.27;44.46
77452;BME280;66537;52.370;4.832;2023-05-27T08:38:47;102892.75;;;21.63;44.33
77452;BME280;66537;52.370;4.832;2023-05-27T08:41:13;102886.91;;;21.77;44.52
77452;BME280;66537;52.370;4.832;2023-05-27T08:43:40;102890.25;;;21.18;45.50
77452;BME280;66537;52.370;4.832;2023-05-27T08:46:06;102880.97;;;22.12;43.93
77452;BME280;66537;52.370;4.832;2023-05-27T08:48:32;102876.09;;;22.41;43.58
77452;BME280;66537;52.370;4.832;2023-05-27T08:50:57;102885.47;;;21.70;43.83
77452;BME280;66537;52.370;4.832;2023-05-27T08:53:25;102875.44;;;21.58;43.95
77452;BME280;66537;52.370;4.832;2023-05-27T08:55:51;102875.84;;;21.69;45.51
77452;BME280;66537;52.370;4.832;2023-05-27T08:58:19;102876.50;;;21.53;44.48
77452;BME280;66537;52.370;4.832;2023-05-27T09:00:45;102870.06;;;21.39;43.96
77452;BME280;66537;52.370;4.832;2023-05-27T09:03:10;102868.81;;;21.27;44.42
77452;BME280;66537;52.370;4.832;2023-05-27T09:05:36;102855.47;;;21.72;44.39
77452;BME280;66537;52.370;4.832;2023-05-27T09:08:01;102869.88;;;21.85;44.13
77452;BME280;66537;52.370;4.832;2023-05-27T09:10:37;102849.59;;;22.26;42.80
77452;BME280;66537;52.370;4.832;2023-05-27T09:13:03;102851.59;;;22.58;42.74
77452;BME280;66537;52.370;4.832;2023-05-27T09:15:30;102853.94;;;21.88;43.99
77452;BME280;66537;52.370;4.832;2023-05-27T09:17:56;102843.53;;;22.42;43.08
77452;BME280;66537;52.370;4.832;2023-05-27T09:20:26;102845.94;;;22.28;43.09
77452;BME280;66537;52.370;4.832;2023-05-27T09:23:02;102828.41;;;22.83;42.45
77452;BME280;66537;52.370;4.832;2023-05-27T09:25:28;102842.91;;;21.99;43.92
77452;BME280;66537;52.370;4.832;2023-05-27T09:27:54;102837.09;;;21.71;44.18
77452;BME280;66537;52.370;4.832;2023-05-27T09:30:21;102840.03;;;22.23;43.32
77452;BME280;66537;52.370;4.832;2023-05-27T09:32:46;102838.50;;;22.57;43.59
77452;BME280;66537;52.370;4.832;2023-05-27T09:35:13;102829.31;;;22.82;42.54
77452;BME280;66537;52.370;4.832;2023-05-27T09:37:38;102826.22;;;22.74;43.50
77452;BME280;66537;52.370;4.832;2023-05-27T09:40:09;102830.16;;;23.01;42.33
77452;BME280;66537;52.370;4.832;2023-05-27T09:42:47;102820.78;;;22.77;43.43
77452;BME280;66537;52.370;4.832;2023-05-27T09:45:15;102828.31;;;22.85;43.45
77452;BME280;66537;52.370;4.832;2023-05-27T09:47:49;102823.16;;;23.36;41.61
77452;BME280;66537;52.370;4.832;2023-05-27T09:50:15;102833.69;;;22.27;43.55
77452;BME280;66537;52.370;4.832;2023-05-27T09:52:42;102829.19;;;22.67;43.89
77452;BME280;66537;52.370;4.832;2023-05-27T09:55:09;102824.41;;;22.75;43.78
77452;BME280;66537;52.370;4.832;2023-05-27T09:57:36;102822.28;;;22.08;44.04
77452;BME280;66537;52.370;4.832;2023-05-27T10:00:03;102825.41;;;22.54;43.17
77452;BME280;66537;52.370;4.832;2023-05-27T10:02:42;102819.56;;;22.10;44.62
77452;BME280;66537;52.370;4.832;2023-05-27T10:05:12;102816.78;;;22.13;44.59
77452;BME280;66537;52.370;4.832;2023-05-27T10:07:43;102819.56;;;22.28;44.49
77452;BME280;66537;52.370;4.832;2023-05-27T10:10:10;102800.66;;;22.56;44.61
77452;BME280;66537;52.370;4.832;2023-05-27T10:12:38;102800.91;;;22.70;43.69
77452;BME280;66537;52.370;4.832;2023-05-27T10:15:04;102794.03;;;23.02;44.36
77452;BME280;66537;52.370;4.832;2023-05-27T10:17:47;102797.75;;;22.98;42.62
77452;BME280;66537;52.370;4.832;2023-05-27T10:20:23;102800.78;;;22.90;42.81
77452;BME280;66537;52.370;4.832;2023-05-27T10:22:48;102791.94;;;22.91;43.56
77452;BME280;66537;52.370;4.832;2023-05-27T10:25:14;102792.94;;;22.89;43.63
77452;BME280;66537;52.370;4.832;2023-05-27T10:27:46;102793.03;;;23.04;42.42
77452;BME280;66537;52.370;4.832;2023-05-27T10:30:13;102787.97;;;22.45;44.08
77452;BME280;66537;52.370;4.832;2023-05-27T10:32:49;102784.09;;;22.90;43.31
77452;BME280;66537;52.370;4.832;2023-05-27T10:35:18;102781.69;;;22.67;44.28
77452;BME280;66537;52.370;4.832;2023-05-27T10:37:43;102770.03;;;22.89;43.79
77452;BME280;66537;52.370;4.832;2023-05-27T10:40:11;102768.31;;;22.88;44.03
77452;BME280;66537;52.370;4.832;2023-05-27T10:42:37;102773.25;;;23.30;43.11
77452;BME280;66537;52.370;4.832;2023-05-27T10:45:09;102772.22;;;22.98;42.62
77452;BME280;66537;52.370;4.832;2023-05-27T10:47:38;102766.16;;;23.13;42.90
77452;BME280;66537;52.370;4.832;2023-05-27T10:50:10;102758.72;;;23.04;42.77
77452;BME280;66537;52.370;4.832;2023-05-27T10:52:40;102774.50;;;22.52;44.31
77452;BME280;66537;52.370;4.832;2023-05-27T10:55:07;102757.88;;;22.14;45.22
77452;BME280;66537;52.370;4.832;2023-05-27T10:57:33;102750.88;;;22.86;44.03
77452;BME280;66537;52.370;4.832;2023-05-27T11:00:04;102758.06;;;22.28;45.16
77452;BME280;66537;52.370;4.832;2023-05-27T11:02:35;102754.41;;;22.49;44.01
77452;BME280;66537;52.370;4.832;2023-05-27T11:05:08;102749.44;;;22.79;43.89
77452;BME280;66537;52.370;4.832;2023-05-27T11:07:36;102740.47;;;21.91;45.36
77452;BME280;66537;52.370;4.832;2023-05-27T11:10:02;102735.84;;;22.33;45.36
77452;BME280;66537;52.370;4.832;2023-05-27T11:12:27;102735.84;;;22.33;44.70
77452;BME280;66537;52.370;4.832;2023-05-27T11:14:54;102730.69;;;22.85;43.80
77452;BME280;66537;52.370;4.832;2023-05-27T11:17:20;102724.25;;;22.00;45.21
77452;BME280;66537;52.370;4.832;2023-05-27T11:19:46;102730.13;;;22.05;45.37
77452;BME280;66537;52.370;4.832;2023-05-27T11:22:13;102732.00;;;21.85;45.78
77452;BME280;66537;52.370;4.832;2023-05-27T11:24:39;102717.19;;;21.82;45.60
77452;BME280;66537;52.370;4.832;2023-05-27T11:27:10;102713.78;;;21.99;45.83
77452;BME280;66537;52.370;4.832;2023-05-27T11:29:39;102716.06;;;21.68;46.02
77452;BME280;66537;52.370;4.832;2023-05-27T11:32:06;102715.63;;;21.97;45.29
77452;BME280;66537;52.370;4.832;2023-05-27T11:34:35;102709.09;;;22.22;45.16
77452;BME280;66537;52.370;4.832;2023-05-27T11:37:02;102704.66;;;22.60;44.03
77452;BME280;66537;52.370;4.832;2023-05-27T11:39:32;102701.06;;;22.61;44.78
77452;BME280;66537;52.370;4.832;2023-05-27T11:41:58;102700.66;;;22.52;44.33
77452;BME280;66537;52.370;4.832;2023-05-27T11:44:24;102698.38;;;21.90;46.15
77452;BME280;66537;52.370;4.832;2023-05-27T11:46:51;102691.34;;;21.70;46.55
77452;BME280;66537;52.370;4.832;2023-05-27T11:49:18;102689.56;;;21.91;45.56
77452;BME280;66537;52.370;4.832;2023-05-27T11:51:46;102685.00;;;21.94;45.91
77452;BME280;66537;52.370;4.832;2023-05-27T11:54:18;102677.69;;;21.62;47.63
77452;BME280;66537;52.370;4.832;2023-05-27T11:56:44;102681.63;;;21.33;46.73
77452;BME280;66537;52.370;4.832;2023-05-27T11:59:10;102673.78;;;20.92;47.32
77452;BME280;66537;52.370;4.832;2023-05-27T12:01:35;102666.53;;;20.97;48.34
77452;BME280;66537;52.370;4.832;2023-05-27T12:04:01;102663.78;;;20.59;47.59
77452;BME280;66537;52.370;4.832;2023-05-27T12:06:26;102662.75;;;20.42;48.73
77452;BME280;66537;52.370;4.832;2023-05-27T12:08:51;102660.97;;;20.42;48.95
77452;BME280;66537;52.370;4.832;2023-05-27T12:11:16;102657.13;;;20.51;48.54
77452;BME280;66537;52.370;4.832;2023-05-27T12:13:42;102652.16;;;20.65;48.35
77452;BME280;66537;52.370;4.832;2023-05-27T12:16:07;102649.88;;;20.36;48.90
77452;BME280;66537;52.370;4.832;2023-05-27T12:18:33;102649.75;;;20.16;48.69
77452;BME280;66537;52.370;4.832;2023-05-27T12:20:58;102650.19;;;20.28;49.08
77452;BME280;66537;52.370;4.832;2023-05-27T12:23:23;102648.69;;;20.21;49.83
77452;BME280;66537;52.370;4.832;2023-05-27T12:25:49;102635.78;;;19.94;50.40
77452;BME280;66537;52.370;4.832;2023-05-27T12:28:14;102641.16;;;20.12;51.34
77452;BME280;66537;52.370;4.832;2023-05-27T12:30:40;102640.25;;;20.35;50.64
77452;BME280;66537;52.370;4.832;2023-05-27T12:33:06;102632.44;;;20.33;50.15
77452;BME280;66537;52.370;4.832;2023-05-27T12:35:32;102627.34;;;20.07;50.08
77452;BME280;66537;52.370;4.832;2023-05-27T12:37:59;102618.22;;;20.16;50.06
77452;BME280;66537;52.370;4.832;2023-05-27T12:40:25;102624.69;;;20.30;49.37
77452;BME280;66537;52.370;4.832;2023-05-27T12:42:51;102610.97;;;20.01;49.90
77452;BME280;66537;52.370;4.832;2023-05-27T12:45:17;102625.13;;;19.97;49.90
77452;BME280;66537;52.370;4.832;2023-05-27T12:47:42;102622.59;;;19.95;50.54
77452;BME280;66537;52.370;4.832;2023-05-27T12:50:08;102613.94;;;20.13;50.70
77452;BME280;66537;52.370;4.832;2023-05-27T12:52:34;102616.06;;;20.05;49.07